Time;durP1;ratioP1;P1;durP2;ratioP2;P2;SDS_P1;SDS_P2;PMS_P1;PMS_P2;Temp;Humidity;BMP_temperature;BMP_pressure;BME280_temperature;BME280_humidity;BME280_pressure;Samples;Min_cycle;Max_cycle;Signal;HPM_P1;HPM_P2
2023/03/03 00:00:31;;;;;;;54.95;36.05;;;;;;;-0.04;100.00;160564.44;5050628;28;20041;-61
2023/03/03 00:03:00;;;;;;;52.75;34.50;;;;;;;0.01;100.00;160576.50;5051700;28;20439;-61
2023/03/03 00:05:25;;;;;;;57.33;37.95;;;;;;;-0.07;100.00;160555.06;5050700;28;20091;-61
2023/03/03 00:07:50;;;;;;;53.95;39.63;;;;;;;-0.02;100.00;160569.81;5051956;28;20380;-61
2023/03/03 00:10:16;;;;;;;57.45;36.58;;;;;;;-0.12;100.00;160543.03;5050607;28;20029;-61
2023/03/03 00:12:47;;;;;;;53.97;35.10;;;;;;;-0.02;100.00;160569.81;5051798;28;20028;-61
2023/03/03 00:15:18;;;;;;;54.72;36.38;;;;;;;0.07;100.00;160591.25;5050656;28;20086;-61
2023/03/03 00:17:44;;;;;;;52.85;35.60;;;;;;;0.11;100.00;160603.31;5051673;28;20552;-61
2023/03/03 00:20:28;;;;;;;54.05;34.20;;;;;;;0.14;100.00;160611.38;5050380;28;20123;-61
2023/03/03 00:22:53;;;;;;;64.38;37.45;;;;;;;0.13;100.00;160608.69;5051800;28;20067;-61
2023/03/03 00:25:24;;;;;;;56.03;35.45;;;;;;;0.21;100.00;160627.47;5049982;28;20079;-61
2023/03/03 00:27:50;;;;;;;57.22;40.38;;;;;;;0.15;100.00;160612.72;5031438;28;20033;-61
2023/03/03 00:30:26;;;;;;;60.78;39.50;;;;;;;0.17;100.00;160618.09;5033757;28;20047;-61
2023/03/03 00:32:53;;;;;;;53.33;34.90;;;;;;;0.15;100.00;160612.72;5051229;28;20028;-61
2023/03/03 00:35:23;;;;;;;55.28;37.72;;;;;;;0.16;100.00;160615.41;5050489;28;20032;-61
2023/03/03 00:37:54;;;;;;;57.05;36.92;;;;;;;0.07;100.00;160591.25;5051907;28;20021;-61
2023/03/03 00:40:32;;;;;;;59.08;35.88;;;;;;;0.12;100.00;160604.66;5049718;28;20115;-61
2023/03/03 00:42:59;;;;;;;63.03;38.55;;;;;;;0.05;100.00;160587.25;5050186;28;20033;-61
2023/03/03 00:45:34;;;;;;;68.60;41.15;;;;;;;0.01;100.00;160576.50;5050352;28;20028;-61
2023/03/03 00:48:16;;;;;;;62.10;38.10;;;;;;;-0.02;100.00;160568.50;5050436;28;20056;-62
2023/03/03 00:50:42;;;;;;;67.53;40.40;;;;;;;-0.08;100.00;160553.75;5050090;28;20037;-61
2023/03/03 00:53:13;;;;;;;63.50;36.38;;;;;;;-0.03;100.00;160565.81;5051573;28;20032;-61
2023/03/03 00:55:39;;;;;;;66.43;38.95;;;;;;;-0.12;100.00;160541.69;5049452;28;20052;-61
2023/03/03 00:58:05;;;;;;;60.05;37.38;;;;;;;-0.14;100.00;160536.28;5051213;28;20065;-60
2023/03/03 01:00:31;;;;;;;58.42;35.25;;;;;;;-0.19;100.00;160524.28;5050015;28;20139;-61
2023/03/03 01:02:58;;;;;;;65.45;36.90;;;;;;;-0.20;100.00;160521.59;5050869;28;20535;-60
2023/03/03 01:05:24;;;;;;;65.88;38.60;;;;;;;-0.24;100.00;160512.22;5049843;28;20112;-61
2023/03/03 01:07:49;;;;;;;71.32;38.80;;;;;;;-0.22;100.00;160516.22;5050806;28;20386;-61
2023/03/03 01:10:14;;;;;;;64.68;38.10;;;;;;;-0.22;100.00;160516.22;5048971;28;20087;-61
2023/03/03 01:12:40;;;;;;;66.32;40.00;;;;;;;-0.22;100.00;160516.22;5050754;28;20100;-61
2023/03/03 01:15:12;;;;;;;62.95;36.92;;;;;;;-0.25;100.00;160508.16;5051294;28;20021;-61
2023/03/03 01:17:38;;;;;;;65.05;36.53;;;;;;;-0.26;100.00;160505.53;5048927;28;20118;-61
2023/03/03 01:20:06;;;;;;;59.80;34.05;;;;;;;-0.23;100.00;160514.91;5051295;28;20083;-59
2023/03/03 01:22:32;;;;;;;69.40;35.45;;;;;;;-0.24;100.00;160510.84;5049072;28;20486;-59
2023/03/03 01:24:57;;;;;;;64.20;38.50;;;;;;;-0.26;100.00;160505.53;5050504;28;20100;-59
2023/03/03 01:27:22;;;;;;;58.13;35.53;;;;;;;-0.24;100.00;160510.84;5048704;28;20377;-60
2023/03/03 01:29:48;;;;;;;53.15;35.65;;;;;;;-0.18;100.00;160526.91;5049340;28;20032;-60
2023/03/03 01:32:13;;;;;;;57.13;37.80;;;;;;;-0.20;100.00;160521.59;5050221;28;20464;-62
2023/03/03 01:34:38;;;;;;;58.80;37.60;;;;;;;-0.16;100.00;160532.28;5048975;28;20021;-60
2023/03/03 01:37:04;;;;;;;63.97;35.38;;;;;;;-0.09;100.00;160551.06;5050963;28;20017;-60
2023/03/03 01:39:29;;;;;;;63.22;35.08;;;;;;;-0.08;100.00;160552.41;5050342;28;20361;-60
2023/03/03 01:41:55;;;;;;;61.35;36.03;;;;;;;-0.14;100.00;160537.66;5048573;28;20075;-60
2023/03/03 01:44:20;;;;;;;62.88;36.15;;;;;;;-0.13;100.00;160540.34;5050428;28;20055;-60
2023/03/03 01:47:03;;;;;;;62.05;32.58;;;;;;;-0.12;100.00;160543.03;5048434;28;20037;-60
2023/03/03 01:49:38;;;;;;;56.70;33.80;;;;;;;-0.08;100.00;160553.75;5050309;28;20037;-61
2023/03/03 01:52:20;;;;;;;58.55;32.70;;;;;;;-0.10;100.00;160548.38;5048987;28;20090;-60
2023/03/03 01:54:51;;;;;;;49.60;29.83;;;;;;;-0.10;100.00;160547.03;5047701;28;20028;-60
2023/03/03 01:57:24;;;;;;;51.17;30.23;;;;;;;-0.12;100.00;160541.69;5050814;28;20040;-60
2023/03/03 01:59:51;;;;;;;55.40;32.00;;;;;;;-0.10;100.00;160548.38;5048530;28;20021;-60
2023/03/03 02:02:17;;;;;;;49.78;30.30;;;;;;;-0.03;100.00;160565.81;5048945;28;20427;-60
2023/03/03 02:04:43;;;;;;;47.10;29.20;;;;;;;-0.01;100.00;160571.19;5048788;28;20028;-60
2023/03/03 02:07:10;;;;;;;46.05;27.75;;;;;;;0.01;100.00;160575.19;5050593;28;20036;-61
2023/03/03 02:09:49;;;;;;;50.15;32.22;;;;;;;0.04;100.00;160583.25;5048493;28;20172;-60
2023/03/03 02:12:17;;;;;;;53.50;30.98;;;;;;;0.06;100.00;160589.94;5050663;28;20048;-60
2023/03/03 02:14:42;;;;;;;57.30;30.48;;;;;;;0.04;100.00;160583.25;5047847;28;20055;-60
2023/03/03 02:17:08;;;;;;;49.03;31.73;;;;;;;0.07;100.00;160591.25;5050400;28;20029;-60
2023/03/03 02:20:08;;;;;;;49.70;31.50;;;;;;;0.10;100.00;160600.63;5048195;28;20025;-61
2023/03/03 02:22:43;;;;;;;60.40;34.28;;;;;;;0.09;100.00;160596.63;5038046;28;20059;-60
2023/03/03 02:25:15;;;;;;;52.15;30.58;;;;;;;0.08;100.00;160593.94;5048672;28;20044;-60
2023/03/03 02:27:40;;;;;;;46.45;30.02;;;;;;;0.06;100.00;160588.56;5050090;28;20033;-60
2023/03/03 02:30:24;;;;;;;50.85;33.47;;;;;;;0.12;100.00;160604.66;5048545;28;20044;-60
2023/03/03 02:32:49;;;;;;;52.50;30.73;;;;;;;0.15;100.00;160612.72;5049688;28;20115;-60
2023/03/03 02:35:30;;;;;;;55.05;30.92;;;;;;;0.18;100.00;160620.78;5048791;28;20037;-61
2023/03/03 02:38:05;;;;;;;62.03;34.78;;;;;;;0.13;100.00;160607.34;5050058;28;20029;-61
2023/03/03 02:40:37;;;;;;;52.45;33.00;;;;;;;0.15;100.00;160612.72;5048279;28;20041;-61
2023/03/03 02:43:05;;;;;;;58.13;36.53;;;;;;;0.14;100.00;160610.00;5050110;28;20020;-62
2023/03/03 02:45:31;;;;;;;65.65;37.97;;;;;;;0.11;100.00;160602.00;5047951;28;20044;-59
2023/03/03 02:47:56;;;;;;;58.05;33.03;;;;;;;0.16;100.00;160615.41;5049713;28;20028;-59
2023/03/03 02:50:21;;;;;;;55.90;34.45;;;;;;;0.19;100.00;160623.41;5048350;28;20041;-60
2023/03/03 02:52:47;;;;;;;54.83;35.20;;;;;;;0.26;100.00;160640.84;5049307;28;20028;-60
2023/03/03 02:55:12;;;;;;;52.92;34.85;;;;;;;0.27;100.00;160644.84;5048331;28;20041;-60
2023/03/03 02:57:37;;;;;;;53.80;33.88;;;;;;;0.27;100.00;160644.84;5049626;28;20071;-60
2023/03/03 03:00:04;;;;;;;56.00;33.33;;;;;;;0.27;100.00;160644.84;5048300;28;20135;-60
2023/03/03 03:02:29;;;;;;;47.38;31.25;;;;;;;0.29;100.00;160650.22;5049456;28;20029;-60
2023/03/03 03:04:55;;;;;;;56.35;34.78;;;;;;;0.23;100.00;160634.16;5048663;28;20647;-59
2023/03/03 03:07:20;;;;;;;52.88;31.33;;;;;;;0.27;100.00;160644.84;5052743;28;20017;-59
2023/03/03 03:09:46;;;;;;;49.03;29.98;;;;;;;0.29;100.00;160650.22;5051692;28;20040;-59
2023/03/03 03:12:12;;;;;;;50.40;31.48;;;;;;;0.35;100.00;160663.63;5053520;28;20391;-60
2023/03/03 03:14:37;;;;;;;54.65;32.00;;;;;;;0.23;100.00;160634.16;5051675;28;20025;-59
2023/03/03 03:17:03;;;;;;;50.58;28.88;;;;;;;0.31;100.00;160655.59;5053165;28;20060;-60
2023/03/03 03:19:29;;;;;;;50.50;30.85;;;;;;;0.20;100.00;160624.78;5053488;28;20074;-60
2023/03/03 03:21:54;;;;;;;48.75;31.63;;;;;;;0.30;100.00;160652.91;5050777;28;20041;-60
2023/03/03 03:24:19;;;;;;;48.60;29.90;;;;;;;0.29;100.00;160648.91;5053194;28;20116;-59
2023/03/03 03:26:45;;;;;;;49.67;29.65;;;;;;;0.29;100.00;160650.22;5051558;28;20041;-61
2023/03/03 03:29:10;;;;;;;48.72;33.25;;;;;;;0.33;100.00;160658.28;5052578;28;20033;-62
2023/03/03 03:31:36;;;;;;;50.33;30.05;;;;;;;0.34;100.00;160660.94;5051007;28;20044;-60
2023/03/03 03:34:02;;;;;;;56.60;33.20;;;;;;;0.34;100.00;160662.31;5052701;28;20055;-61
2023/03/03 03:36:27;;;;;;;57.08;33.60;;;;;;;0.36;100.00;160666.31;5051102;28;20523;-61
2023/03/03 03:38:53;;;;;;;57.95;33.03;;;;;;;0.36;100.00;160666.31;5052824;28;20021;-61
2023/03/03 03:41:18;;;;;;;59.15;36.85;;;;;;;0.37;100.00;160669.00;5051401;28;20053;-62
2023/03/03 03:43:43;;;;;;;65.00;38.17;;;;;;;0.38;100.00;160671.69;5051929;28;20029;-62
2023/03/03 03:46:09;;;;;;;60.20;34.95;;;;;;;0.38;100.00;160671.69;5050914;28;20041;-63
2023/03/03 03:48:34;;;;;;;60.47;36.83;;;;;;;0.36;100.00;160666.31;5052315;28;20105;-62
2023/03/03 03:51:00;;;;;;;63.45;35.78;;;;;;;0.37;100.00;160669.00;5050855;28;20040;-62
2023/03/03 03:53:25;;;;;;;56.63;36.63;;;;;;;0.37;100.00;160670.38;5052303;28;20021;-62
2023/03/03 03:55:51;;;;;;;64.53;36.83;;;;;;;0.41;100.00;160679.75;5051036;28;20399;-62
2023/03/03 03:58:17;;;;;;;69.80;37.72;;;;;;;0.42;100.00;160683.75;5052025;28;20036;-63
2023/03/03 04:00:45;;;;;;;67.82;38.85;;;;;;;0.35;100.00;160663.63;5050952;28;20040;-62
2023/03/03 04:03:13;;;;;;;67.28;39.55;;;;;;;0.42;100.00;160683.75;5052400;28;20058;-62
2023/03/03 04:05:38;;;;;;;48.47;30.13;;;;;;;0.42;100.00;160682.38;5048785;28;20045;-62
2023/03/03 04:08:04;;;;;;;66.53;40.17;;;;;;;0.46;100.00;160694.44;5051857;28;20035;-62
2023/03/03 04:10:29;;;;;;;74.55;41.72;;;;;;;0.43;100.00;160685.06;5050843;28;20396;-62
2023/03/03 04:12:54;;;;;;;70.05;43.20;;;;;;;0.45;100.00;160690.44;5052071;28;20063;-63
2023/03/03 04:15:20;;;;;;;69.50;41.05;;;;;;;0.49;100.00;160701.16;5050569;28;20041;-62
2023/03/03 04:17:46;;;;;;;72.75;42.38;;;;;;;0.50;100.00;160703.84;5051335;28;20024;-62
2023/03/03 04:20:14;;;;;;;88.97;45.33;;;;;;;0.50;100.00;160703.84;5051017;28;20511;-62
2023/03/03 04:22:39;;;;;;;78.78;48.17;;;;;;;0.42;100.00;160682.38;5051442;28;20052;-61
2023/03/03 04:25:06;;;;;;;76.93;39.33;;;;;;;0.42;100.00;160683.75;5050822;28;20056;-61
2023/03/03 04:27:32;;;;;;;75.30;43.40;;;;;;;0.43;100.00;160685.06;5051396;28;20078;-61
2023/03/03 04:29:58;;;;;;;71.78;44.22;;;;;;;0.45;100.00;160690.44;5050003;28;20037;-61
2023/03/03 04:32:23;;;;;;;80.00;44.42;;;;;;;0.46;100.00;160693.13;5052012;28;20017;-61
2023/03/03 04:34:48;;;;;;;75.18;39.55;;;;;;;0.44;100.00;160687.75;5050012;28;20129;-61
2023/03/03 04:37:14;;;;;;;76.50;43.60;;;;;;;0.48;100.00;160698.50;5050993;28;20039;-61
2023/03/03 04:39:39;;;;;;;74.40;40.03;;;;;;;0.45;100.00;160690.44;5050277;28;20025;-61
2023/03/03 04:42:05;;;;;;;66.47;39.33;;;;;;;0.46;100.00;160694.44;5051308;28;20045;-60
2023/03/03 04:44:30;;;;;;;82.70;37.97;;;;;;;0.50;100.00;160702.53;5049546;28;20388;-60
2023/03/03 04:46:55;;;;;;;68.78;41.78;;;;;;;0.50;100.00;160703.84;5052084;28;20021;-60
2023/03/03 04:49:21;;;;;;;72.75;42.88;;;;;;;0.53;100.00;160711.91;5051535;28;20025;-60
2023/03/03 04:51:46;;;;;;;67.85;38.15;;;;;;;0.47;100.00;160695.81;5049220;28;20522;-60
2023/03/03 04:54:11;;;;;;;77.85;42.20;;;;;;;0.49;100.00;160701.16;5051455;28;20099;-60
2023/03/03 04:56:37;;;;;;;66.90;41.22;;;;;;;0.54;100.00;160714.59;5049504;28;20041;-60
2023/03/03 04:59:02;;;;;;;63.63;39.58;;;;;;;0.50;100.00;160703.84;5051092;28;20024;-61
2023/03/03 05:01:27;;;;;;;67.10;36.80;;;;;;;0.49;100.00;160701.16;5050002;28;20380;-60
2023/03/03 05:03:53;;;;;;;76.68;38.38;;;;;;;0.50;100.00;160703.84;5050870;28;20024;-61
2023/03/03 05:06:18;;;;;;;60.33;36.70;;;;;;;0.47;100.00;160697.16;5049388;28;20049;-60
2023/03/03 05:08:44;;;;;;;55.80;32.85;;;;;;;0.49;100.00;160701.16;5050725;28;20031;-60
2023/03/03 05:11:10;;;;;;;54.28;34.00;;;;;;;0.52;100.00;160709.22;5049647;28;20052;-60
2023/03/03 05:13:35;;;;;;;56.05;30.65;;;;;;;0.48;100.00;160698.50;5049469;28;20025;-59
2023/03/03 05:16:01;;;;;;;59.95;40.40;;;;;;;0.51;100.00;160706.53;5048647;28;20037;-59
2023/03/03 05:18:26;;;;;;;66.30;35.72;;;;;;;0.54;100.00;160714.59;5050946;28;20036;-59
2023/03/03 05:20:53;;;;;;;60.83;33.60;;;;;;;0.51;100.00;160706.53;5048180;28;20045;-59
2023/03/03 05:23:19;;;;;;;53.45;34.90;;;;;;;0.52;100.00;160707.91;5050470;28;20081;-59
2023/03/03 05:25:47;;;;;;;50.55;36.20;;;;;;;0.53;100.00;160710.53;5049401;28;20049;-60
2023/03/03 05:28:12;;;;;;;52.38;34.35;;;;;;;0.54;100.00;160714.59;5049814;28;20044;-59
2023/03/03 05:30:38;;;;;;;49.83;31.55;;;;;;;0.56;100.00;160718.59;5049231;28;20045;-59
2023/03/03 05:33:04;;;;;;;49.20;31.70;;;;;;;0.55;100.00;160715.91;5050595;28;20074;-58
2023/03/03 05:35:30;;;;;;;52.30;31.10;;;;;;;0.54;100.00;160713.22;5048096;28;20033;-59
2023/03/03 05:37:57;;;;;;;57.05;36.03;;;;;;;0.53;100.00;160710.53;5049919;28;20610;-59
2023/03/03 05:40:23;;;;;;;47.65;31.55;;;;;;;0.55;100.00;160717.28;5049224;28;20500;-59
2023/03/03 05:42:48;;;;;;;55.00;33.58;;;;;;;0.56;100.00;160718.59;5049677;28;20040;-59
2023/03/03 05:45:14;;;;;;;46.42;33.28;;;;;;;0.59;100.00;160726.66;5048889;28;20033;-59
2023/03/03 05:47:39;;;;;;;48.70;32.47;;;;;;;0.63;100.00;160738.69;5050004;28;20032;-59
2023/03/03 05:50:04;;;;;;;52.38;31.55;;;;;;;0.65;100.00;160741.38;5047632;28;20037;-59
2023/03/03 05:52:30;;;;;;;53.88;33.05;;;;;;;0.60;100.00;160730.66;5050694;28;20060;-59
2023/03/03 05:54:56;;;;;;;51.55;33.78;;;;;;;0.60;100.00;160730.66;5049304;28;20036;-59
2023/03/03 05:57:21;;;;;;;50.20;32.20;;;;;;;0.61;100.00;160733.34;5050203;28;20577;-59
2023/03/03 05:59:46;;;;;;;49.83;32.03;;;;;;;0.60;100.00;160729.31;5049028;28;20020;-59
2023/03/03 06:02:12;;;;;;;56.25;32.22;;;;;;;0.60;100.00;160730.66;5050156;28;20025;-59
2023/03/03 06:04:37;;;;;;;54.95;34.55;;;;;;;0.56;100.00;160719.91;5048693;28;20601;-59
2023/03/03 06:07:02;;;;;;;56.60;33.05;;;;;;;0.56;100.00;160719.91;5050760;28;20020;-59
2023/03/03 06:09:28;;;;;;;45.38;30.20;;;;;;;0.52;100.00;160707.91;5048917;28;20021;-58
2023/03/03 06:11:53;;;;;;;52.00;30.05;;;;;;;0.48;100.00;160698.50;5049944;28;20522;-59
2023/03/03 06:14:20;;;;;;;49.20;31.65;;;;;;;0.43;100.00;160685.06;5050486;28;20017;-59
2023/03/03 06:16:46;;;;;;;53.88;30.25;;;;;;;0.37;100.00;160670.38;5048737;28;20411;-59
2023/03/03 06:19:11;;;;;;;48.72;30.98;;;;;;;0.34;100.00;160660.94;5050220;28;20029;-59
2023/03/03 06:21:36;;;;;;;47.22;29.33;;;;;;;0.32;100.00;160656.94;5048848;28;20059;-59
2023/03/03 06:24:02;;;;;;;49.75;31.25;;;;;;;0.33;100.00;160658.28;5050167;28;20112;-59
2023/03/03 06:26:27;;;;;;;50.88;33.17;;;;;;;0.33;100.00;160659.63;5048583;28;20052;-59
2023/03/03 06:28:54;;;;;;;56.58;34.00;;;;;;;0.28;100.00;160647.53;5050062;28;20102;-59
2023/03/03 06:31:19;;;;;;;48.03;28.90;;;;;;;0.31;100.00;160655.59;5048736;28;20037;-59
2023/03/03 06:33:45;;;;;;;53.80;32.28;;;;;;;0.27;100.00;160644.84;5049742;28;20385;-59
2023/03/03 06:36:11;;;;;;;57.90;34.20;;;;;;;0.31;100.00;160655.59;5048871;28;20044;-59
2023/03/03 06:38:36;;;;;;;59.35;33.55;;;;;;;0.31;100.00;160655.59;5050190;28;20079;-59
2023/03/03 06:41:06;;;;;;;53.50;30.73;;;;;;;0.29;100.00;160650.22;5049319;28;20049;-59
2023/03/03 06:43:32;;;;;;;46.58;28.05;;;;;;;0.32;100.00;160656.94;5052386;28;20032;-59
2023/03/03 06:45:57;;;;;;;45.90;28.25;;;;;;;0.31;100.00;160655.59;5052501;28;20040;-59
2023/03/03 06:48:22;;;;;;;42.00;26.30;;;;;;;0.31;100.00;160655.59;5053008;28;20021;-59
2023/03/03 06:50:48;;;;;;;50.38;30.75;;;;;;;0.31;100.00;160655.59;5050928;28;20040;-59
2023/03/03 06:53:15;;;;;;;44.45;25.95;;;;;;;0.36;100.00;160666.31;5052656;28;20487;-59
2023/03/03 06:55:43;;;;;;;55.25;28.52;;;;;;;0.40;100.00;160677.06;5051534;28;20049;-59
2023/03/03 06:58:17;;;;;;;46.73;28.10;;;;;;;0.49;100.00;160701.16;5055395;28;20032;-59
2023/03/03 07:00:48;;;;;;;48.85;27.27;;;;;;;0.49;100.00;160701.16;5050567;28;20514;-59
2023/03/03 07:03:16;;;;;;;44.60;27.98;;;;;;;0.50;100.00;160703.84;5053074;28;20071;-59
2023/03/03 07:05:43;;;;;;;35.60;22.07;;;;;;;0.53;100.00;160711.91;5058799;28;20077;-59
2023/03/03 07:08:16;;;;;;;44.33;26.80;;;;;;;0.54;100.00;160714.59;5072498;28;20032;-59
2023/03/03 07:10:42;;;;;;;54.95;28.40;;;;;;;0.48;100.00;160698.50;5070663;28;20546;-59
2023/03/03 07:13:28;;;;;;;45.55;27.45;;;;;;;0.53;100.00;160711.91;5072918;28;20021;-59
2023/03/03 07:16:02;;;;;;;47.80;28.05;;;;;;;0.56;100.00;160719.91;5054749;28;20047;-59
2023/03/03 07:18:50;;;;;;;51.50;28.45;;;;;;;0.65;100.00;160741.38;5072470;28;20028;-59
2023/03/03 07:21:21;;;;;;;54.50;27.95;;;;;;;0.58;100.00;160725.28;5067221;28;20032;-59
2023/03/03 07:23:51;;;;;;;51.00;30.08;;;;;;;0.48;100.00;160698.50;5072286;28;20029;-59
2023/03/03 07:26:21;;;;;;;46.40;26.08;;;;;;;0.49;100.00;160701.16;5071041;28;20049;-59
2023/03/03 07:28:52;;;;;;;45.72;25.90;;;;;;;0.56;100.00;160719.91;5071720;28;20571;-59
2023/03/03 07:31:38;;;;;;;47.63;29.17;;;;;;;0.66;100.00;160744.06;5071160;28;20048;-59
2023/03/03 07:34:20;;;;;;;46.92;26.02;;;;;;;0.77;100.00;160773.59;5068862;28;20349;-59
2023/03/03 07:36:45;;;;;;;47.30;28.05;;;;;;;0.81;100.00;160784.28;5060215;28;20084;-59
2023/03/03 07:39:32;;;;;;;50.22;28.63;;;;;;;0.86;100.00;160797.69;5072508;28;20024;-59
2023/03/03 07:42:35;;;;;;;45.15;25.00;;;;;;;0.87;100.00;160799.06;5062880;28;20639;-59
2023/03/03 07:45:01;;;;;;;36.88;22.15;;;;;;;0.88;100.00;160801.75;5062267;28;20507;-59
2023/03/03 07:47:35;;;;;;;35.92;23.52;;;;;;;0.89;100.00;160805.75;5061713;28;20031;-59
2023/03/03 07:50:15;;;;;;;42.20;23.05;;;;;;;0.99;100.00;160831.22;5070625;28;20060;-59
2023/03/03 07:52:43;;;;;;;40.53;23.38;;;;;;;1.04;100.00;160843.28;5071493;28;20020;-59
2023/03/03 07:55:27;;;;;;;44.80;24.90;;;;;;;1.03;100.00;160841.97;5069964;28;20106;-59
2023/03/03 07:57:56;;;;;;;50.00;25.25;;;;;;;1.09;100.00;160856.69;5072255;28;20082;-59
2023/03/03 08:00:27;;;;;;;50.30;26.27;;;;;;;0.92;100.00;160813.81;5070786;28;20040;-59
2023/03/03 08:03:02;;;;;;;48.67;26.20;;;;;;;0.95;100.00;160821.84;5071631;28;20360;-59
2023/03/03 08:05:31;;;;;;;44.15;26.25;;;;;;;1.07;100.00;160851.38;5069670;28;20050;-59
2023/03/03 08:08:09;;;;;;;;;;;;;;;1.05;100.00;160845.97;5072437;28;20383;-59
2023/03/03 08:10:51;;;;;;;39.38;21.92;;;;;;;1.04;100.00;160843.28;5064661;28;19916;-59
2023/03/03 08:13:16;;;;;;;40.03;24.73;;;;;;;1.15;100.00;160872.81;5065424;28;20483;-59
2023/03/03 08:15:43;;;;;;;43.40;26.02;;;;;;;1.24;100.00;160896.94;5069540;28;20124;-59
2023/03/03 08:18:36;;;;;;;42.58;25.45;;;;;;;1.24;100.00;160896.94;5071372;28;20052;-59
2023/03/03 08:21:13;;;;;;;38.80;21.33;;;;;;;1.31;100.00;160914.38;5060151;28;20040;-59
2023/03/03 08:23:38;;;;;;;34.53;18.40;;;;;;;1.22;100.00;160890.22;5055257;28;20112;-59
2023/03/03 08:26:04;;;;;;;44.15;24.33;;;;;;;1.42;100.00;160942.56;5069443;28;20423;-59
2023/03/03 08:28:29;;;;;;;35.42;22.23;;;;;;;1.42;100.00;160942.56;5071714;28;20052;-59
2023/03/03 08:30:55;;;;;;;41.25;25.15;;;;;;;1.24;100.00;160896.94;5069531;28;20032;-59
2023/03/03 08:33:20;;;;;;;39.17;21.08;;;;;;;1.15;100.00;160872.81;5071065;28;20021;-59
2023/03/03 08:35:46;;;;;;;34.20;19.17;;;;;;;1.18;100.00;160880.84;5053293;28;20581;-59
2023/03/03 08:38:13;;;;;;;36.90;20.60;;;;;;;1.27;100.00;160905.00;5071392;28;20032;-59
2023/03/03 08:40:39;;;;;;;36.00;20.85;;;;;;;1.38;100.00;160933.16;5068989;28;20068;-59
2023/03/03 08:43:05;;;;;;;36.30;22.20;;;;;;;1.42;100.00;160942.56;5071050;28;20394;-59
2023/03/03 08:45:31;;;;;;;32.45;21.48;;;;;;;1.44;100.00;160947.94;5069701;28;20043;-59
2023/03/03 08:47:58;;;;;;;44.08;23.73;;;;;;;1.45;100.00;160950.63;5070269;28;20043;-59
2023/03/03 08:50:25;;;;;;;41.90;22.77;;;;;;;1.50;100.00;160964.03;5069687;28;20495;-59
2023/03/03 08:52:50;;;;;;;35.92;22.45;;;;;;;1.51;100.00;160966.72;5070822;28;20020;-59
2023/03/03 08:55:15;;;;;;;39.83;23.65;;;;;;;1.53;100.00;160972.03;5069364;28;20040;-59
2023/03/03 08:57:41;;;;;;;38.33;23.33;;;;;;;1.67;100.00;161008.28;5071004;28;20157;-59
2023/03/03 09:00:09;;;;;;;47.38;28.15;;;;;;;1.78;100.00;161036.47;5069637;28;20483;-59
2023/03/03 09:02:34;;;;;;;40.65;24.63;;;;;;;1.98;100.00;161088.81;5067812;28;20029;-59
2023/03/03 09:05:00;;;;;;;37.22;23.92;;;;;;;2.05;100.00;161106.22;5067127;28;20085;-59
2023/03/03 09:07:25;;;;;;;39.72;23.85;;;;;;;2.16;100.00;161135.78;5066843;28;20029;-58
2023/03/03 09:09:50;;;;;;;45.92;27.08;;;;;;;2.24;100.00;161154.56;5063445;28;20063;-59
2023/03/03 09:12:27;;;;;;;37.92;24.52;;;;;;;1.99;100.00;161091.50;5066909;28;20103;-59
2023/03/03 09:14:57;;;;;;;45.30;25.48;;;;;;;2.10;100.00;161118.31;5058798;28;20052;-59
2023/03/03 09:17:24;;;;;;;48.33;27.55;;;;;;;2.21;100.00;161149.19;5069523;28;20025;-59
2023/03/03 09:19:50;;;;;;;44.38;24.63;;;;;;;2.05;100.00;161106.22;5067761;28;20510;-59
2023/03/03 09:22:22;;;;;;;38.60;22.30;;;;;;;2.15;100.00;161131.78;5069212;28;20557;-59
2023/03/03 09:24:52;;;;;;;36.20;20.70;;;;;;;2.31;100.00;161174.69;5067209;28;20032;-59
2023/03/03 09:27:28;;;;;;;35.25;22.02;;;;;;;2.47;100.00;161214.97;5069374;28;20024;-59
2023/03/03 09:29:54;;;;;;;37.15;22.70;;;;;;;2.58;100.00;161243.16;5067549;28;20044;-59
2023/03/03 09:32:41;;;;;;;41.83;25.15;;;;;;;2.75;100.00;161288.81;5068956;28;20028;-59
2023/03/03 09:35:39;;;;;;;42.05;23.60;;;;;;;2.58;100.00;161243.16;5068211;28;20036;-59
2023/03/03 09:38:25;;;;;;;52.85;19.85;;;;;;;2.41;100.00;161198.84;5070145;28;20368;-59
2023/03/03 09:41:15;;;;;;;47.63;22.65;;;;;;;2.40;100.00;161196.16;5068634;28;20064;-60
2023/03/03 09:44:16;;;;;;;32.72;21.02;;;;;;;2.71;100.00;161278.09;5069473;28;20029;-58
2023/03/03 09:47:09;;;;;;;36.60;21.60;;;;;;;2.92;100.00;161331.78;5068239;28;20044;-58
2023/03/03 09:49:42;;;;;;;31.40;19.63;;;;;;;3.13;100.00;161388.19;5067980;28;20027;-58
2023/03/03 09:52:28;;;;;;;40.72;21.95;;;;;;;3.25;100.00;161417.72;5070703;28;20591;-58
2023/03/03 09:54:57;;;;;;;40.35;25.90;;;;;;;2.90;100.00;161326.41;5068652;28;20047;-58
2023/03/03 09:57:28;;;;;;;37.97;20.92;;;;;;;2.78;100.00;161295.53;5070126;28;20036;-58
2023/03/03 10:00:14;;;;;;;35.13;21.98;;;;;;;2.95;100.00;161339.81;5068896;28;20036;-58
2023/03/03 10:03:13;;;;;;;34.05;23.48;;;;;;;3.06;100.00;161369.41;5069903;28;20403;-58
2023/03/03 10:05:43;;;;;;;36.63;21.90;;;;;;;2.98;100.00;161347.91;5068740;28;20052;-58
2023/03/03 10:08:17;;;;;;;38.38;21.27;;;;;;;3.04;100.00;161362.69;5070007;28;20082;-58
2023/03/03 10:11:02;;;;;;;34.97;22.48;;;;;;;3.03;100.00;161360.00;5068884;28;20047;-59
2023/03/03 10:13:40;;;;;;;36.78;22.42;;;;;;;3.20;100.00;161404.31;5069973;28;20036;-58
2023/03/03 10:16:16;;;;;;;31.88;23.17;;;;;;;3.32;100.00;161436.53;5068643;28;20041;-58
2023/03/03 10:18:51;;;;;;;32.65;24.40;;;;;;;3.63;100.00;161518.50;5071211;28;20111;-59
2023/03/03 10:21:37;;;;;;;34.47;22.88;;;;;;;3.83;100.00;161568.22;5067804;28;20130;-58
2023/03/03 10:24:18;;;;;;;32.25;19.02;;;;;;;3.87;100.00;161578.97;5073846;28;20024;-58
2023/03/03 10:27:23;;;;;;;28.00;19.95;;;;;;;3.92;100.00;161592.38;5057446;28;20051;-58
2023/03/03 10:29:55;;;;;;;31.17;20.77;;;;;;;3.75;100.00;161548.03;5066268;28;20386;-58
2023/03/03 10:32:36;;;;;;;36.17;18.50;;;;;;;3.75;100.00;161549.41;5074012;28;20178;-58
2023/03/03 10:35:31;;;;;;;51.17;19.20;;;;;;;3.43;100.00;161466.09;5070359;28;20419;-58
2023/03/03 10:38:13;;;;;;;27.85;16.80;;;;;;;3.42;100.00;161462.09;5071245;28;20074;-62
2023/03/03 10:41:18;;;;;;;32.13;17.77;;;;;;;3.58;100.00;161503.72;5067845;28;20131;-59
2023/03/03 10:44:23;;;;;;;31.15;19.38;;;;;;;3.83;100.00;161568.22;5055881;28;20063;-59
2023/03/03 10:46:49;;;;;;;24.13;16.95;;;;;;;4.16;100.00;161654.22;5071218;28;20044;-59
2023/03/03 10:49:32;;;;;;;32.08;16.52;;;;;;;4.10;100.00;161639.41;5073499;28;20071;-59
2023/03/03 10:52:27;;;;;;;28.38;19.00;;;;;;;4.24;100.00;161675.72;5070995;28;21521;-59
2023/03/03 10:55:01;;;;;;;24.98;17.45;;;;;;;3.89;100.00;161584.34;5061246;28;20111;-60
2023/03/03 10:57:57;;;;;;;24.85;18.42;;;;;;;4.09;100.00;161638.09;5067266;28;20107;-59
2023/03/03 11:00:28;;;;;;;28.00;19.30;;;;;;;3.79;100.00;161558.81;5068252;28;20076;-59
2023/03/03 11:02:56;;;;;;;31.52;17.58;;;;;;;3.86;100.00;161576.25;5072536;28;20025;-59
2023/03/03 11:05:43;;;;;;;31.30;20.00;;;;;;;4.06;100.00;161628.69;5071524;28;20082;-60
2023/03/03 11:08:34;;;;;;;23.33;15.45;;;;;;;4.88;100.00;161843.78;5072894;28;20055;-59
2023/03/03 11:11:18;;;;;;;25.52;15.65;;;;;;;5.55;100.00;162017.28;5062943;28;20106;-60
2023/03/03 11:13:57;;;;;;;27.42;17.30;;;;;;;6.05;100.00;162146.53;5072677;28;20082;-60
2023/03/03 11:16:41;;;;;;;;;;;;;;;5.64;100.00;162041.50;5071354;28;20040;-60
2023/03/03 11:19:12;;;;;;;23.65;16.48;;;;;;;5.17;100.00;161917.78;5072236;28;20093;-60
2023/03/03 11:21:43;;;;;;;25.42;17.65;;;;;;;5.17;100.00;161917.78;5071310;28;20072;-59
2023/03/03 11:24:49;;;;;;;29.50;18.00;;;;;;;5.95;100.00;162122.25;5072355;28;20032;-59